ADDS METAR Data INFO
IDs: Format: Raw Decoded Include TAF

Data at: 0634 UTC 15 Dec 2017

KROS 150615Z AUTO 29005KT 10SM SCT023 OVC044 M07/M10 A2994 RMK AO2 T10701103
KROS 150555Z AUTO 30005KT 10SM SCT023 OVC042 M07/M10 A2995 RMK AO2 T10701103 11062 21070 410611105
KROS 150535Z AUTO 29006KT 10SM OVC042 M07/M10 A2995 RMK AO2 T10691103
KROS 150515Z AUTO 29007KT 10SM SCT022 OVC042 M07/M10 A2995 RMK AO2 T10681101
KROS 150455Z AUTO 28006KT 10SM SCT022 OVC042 M07/M10 A2995 RMK AO2 T10681100
KROS 150435Z AUTO 26007KT 10SM BKN020 OVC042 M07/M10 A2995 RMK AO2 T10681100
KROS 150415Z AUTO 27005KT 10SM -SN BKN020 OVC037 M07/M10 A2996 RMK AO2 T10681100
KROS 150355Z AUTO 28004KT 10SM -SN SCT023 OVC037 M07/M10 A2996 RMK AO2 T10681098
KROS 150335Z AUTO 28006G14KT 7SM -SN BKN025 OVC031 M07/M10 A2996 RMK AO2 T10661097
KROS 150315Z AUTO 29008G15KT 10SM -SN OVC023 M06/M10 A2998 RMK AO2 T10621098
KROS 150255Z AUTO 28006KT 10SM OVC023 M06/M09 A2998 RMK AO2 T10651093
KROS 150235Z AUTO 27006KT 10SM OVC023 M06/M09 A2997 RMK AO2 T10631095
KROS 150215Z AUTO 28004KT 10SM -SN OVC023 M06/M09 A2998 RMK AO2 T10651094
KROS 150155Z AUTO 27005KT 10SM OVC023 M07/M09 A2998 RMK AO2 T10661092
KROS 150135Z AUTO 25004KT 10SM OVC023 M07/M09 A2999 RMK AO2 T10661092
KROS 150115Z AUTO 25005KT 10SM OVC023 M07/M09 A3000 RMK AO2 T10681093
KROS 150055Z AUTO 00000KT 10SM -SN OVC023 M07/M09 A3000 RMK AO2 T10691094
KROS 150035Z AUTO 25003KT 10SM -SN OVC023 M07/M09 A3000 RMK AO2 T10701095
KROS 150015Z AUTO 24003KT 10SM -SN OVC025 M07/M09 A3000 RMK AO2 T10701095
KROS 142355Z AUTO 26003KT 7SM -SN OVC027 M07/M09 A3000 RMK AO2 T10701095 11061 21075
KROS 142335Z AUTO 26003KT 10SM -SN OVC029 M07/M10 A3001 RMK AO2 T10701096
KROS 142315Z AUTO 29003KT 7SM -SN OVC029 M07/M10 A3001 RMK AO2 T10691096
KROS 142255Z AUTO 29004KT 3SM -SN SCT024 OVC031 M07/M09 A3001 RMK AO2 T10681095
KROS 142235Z AUTO 27005KT 10SM OVC024 M07/M10 A3001 RMK AO2 T10671099
KROS 142215Z AUTO 27005KT 10SM -SN OVC022 M07/M10 A3001 RMK AO2 T10661100
KROS 142155Z AUTO 28006KT 10SM OVC020 M06/M10 A3001 RMK AO2 T10651098
KROS 142135Z AUTO 27004KT 10SM SCT020 BKN025 OVC035 M06/M10 A3000 RMK AO2 T10631097
KROS 142115Z AUTO 27005KT 10SM OVC038 M06/M10 A2999 RMK AO2 T10631100
KROS 142055Z AUTO 27005KT 10SM SCT021 OVC042 M06/M09 A2999 RMK AO2 T10621095
KROS 142035Z AUTO 26005KT 7SM -SN OVC019 M06/M09 A2999 RMK AO2 T10651095
KROS 142015Z AUTO 26006KT 7SM -SN OVC017 M06/M09 A3000 RMK AO2 T10651095
KROS 141955Z AUTO 25004KT 5SM -SN OVC015 M06/M09 A3000 RMK AO2 T10651095
KROS 141935Z AUTO 27004KT 10SM OVC015 M06/M09 A3000 RMK AO2 T10651095
KROS 141915Z AUTO 26004KT 5SM -SN BKN013 OVC017 M06/M09 A3001 RMK AO2 T10651094
KROS 141855Z AUTO 27003KT 2SM -SN BKN012 OVC019 M07/M09 A3001 RMK AO2 VIS 1 3/4V3 T10671094
KROS 141835Z AUTO 25004KT 1 3/4SM -SN OVC013 M07/M09 A3001 RMK AO2 T10701094
KROS 141815Z AUTO 26005KT 1 1/2SM -SN OVC011 M07/M09 A3001 RMK AO2 T10701095
KROS 141755Z AUTO 26004KT 7SM -SN OVC011 M07/M10 A3002 RMK AO2 T10751099 11075 21102
KROS 141735Z AUTO 27006KT 10SM OVC011 M07/M10 A3003 RMK AO2 T10751100
KROS 141715Z AUTO 26005KT 10SM OVC011 M08/M10 A3003 RMK AO2 T10771101
KROS 141655Z AUTO 27004KT 10SM OVC011 M08/M10 A3003 RMK AO2 T10801104
KROS 141635Z AUTO 26004KT 10SM OVC013 M08/M10 A3003 RMK AO2 T10811105
KROS 141615Z AUTO 27004KT 10SM OVC013 M08/M10 A3003 RMK AO2 T10831105
KROS 141555Z AUTO 26004KT 10SM -SN OVC015 M08/M11 A3003 RMK AO2 T10851106
KROS 141535Z AUTO 26004KT 10SM -SN OVC015 M09/M11 A3003 RMK AO2 T10871107
KROS 141515Z AUTO 00000KT 10SM -SN OVC015 M09/M11 A3003 RMK AO2 T10901107
KROS 141455Z AUTO 00000KT 10SM -SN OVC015 M09/M11 A3003 RMK AO2 T10921110
KROS 141435Z AUTO 00000KT 10SM OVC017 M09/M11 A3002 RMK AO2 T10951111
KROS 141415Z AUTO 00000KT 10SM OVC021 M09/M11 A3001 RMK AO2 T10951111
KROS 141355Z AUTO 00000KT 10SM OVC021 M10/M11 A3001 RMK AO2 T10981114
KROS 141335Z AUTO 00000KT 10SM OVC021 M10/M12 A3001 RMK AO2 T11001116
KROS 141315Z AUTO 00000KT 10SM SCT015 OVC021 M10/M11 A3001 RMK AO2 T11001115
KROS 141255Z AUTO 26003KT 10SM -SN BKN015 OVC026 M10/M12 A3001 RMK AO2 T11021116
KROS 141235Z AUTO 00000KT 10SM SCT015 OVC026 M10/M11 A3001 RMK AO2 T10991114
KROS 141215Z AUTO 25003KT 10SM -SN OVC015 M10/M11 A3001 RMK AO2 T10981112
KROS 141155Z AUTO 27003KT 10SM -SN BKN015 OVC028 M10/M11 A3000 RMK AO2 T10981112 11090 21105
KROS 141135Z AUTO 00000KT 7SM -SN BKN013 BKN019 OVC028 M10/M11 A2999 RMK AO2 T10981112
KROS 141115Z AUTO 00000KT 10SM SCT013 OVC030 M10/M11 A3000 RMK AO2 T10961110
KROS 141055Z AUTO 00000KT 7SM -SN SCT015 OVC030 M10/M11 A2999 RMK AO2 T10971111
KROS 141035Z AUTO 24003KT 10SM -SN BKN015 OVC032 M10/M11 A2999 RMK AO2 T10971111
KROS 141015Z AUTO 00000KT 10SM -SN BKN015 OVC032 M10/M11 A3000 RMK AO2 T10971110
KROS 140955Z AUTO 00000KT 10SM BKN015 OVC032 M10/M11 A3000 RMK AO2 T10971110
KROS 140935Z AUTO 00000KT 10SM SCT015 OVC032 M10/M11 A2999 RMK AO2 T10961110
KROS 140915Z AUTO 00000KT 10SM SCT015 OVC034 M09/M11 A2999 RMK AO2 T10951107
KROS 140855Z AUTO 27003KT 10SM OVC034 M09/M10 A3000 RMK AO2 T10941105
KROS 140835Z AUTO 00000KT 10SM SCT022 SCT027 OVC032 M09/M11 A2999 RMK AO2 T10951106
KROS 140815Z AUTO 00000KT 10SM SCT023 OVC029 M09/M10 A2999 RMK AO2 T10901102
KROS 140755Z AUTO 00000KT 10SM BKN021 OVC026 M09/M10 A2998 RMK AO2 T10911102
KROS 140735Z AUTO 00000KT 10SM BKN021 OVC026 M09/M10 A2997 RMK AO2 T10951105
KROS 140715Z AUTO 00000KT 10SM OVC021 M10/M11 A2997 RMK AO2 T10961107
KROS 140655Z AUTO 00000KT 10SM OVC021 M10/M11 A2997 RMK AO2 T11041114
KROS 140635Z AUTO 00000KT 10SM BKN021 BKN110 M09/M10 A2997 RMK AO2 T10931105
KROS 140615Z AUTO 00000KT 10SM OVC021 M10/M10 A2996 RMK AO2 T10961105
KROS 140555Z AUTO 00000KT 10SM OVC021 M10/M11 A2996 RMK AO2 T10981107 11057 21099 410471099
KROS 140535Z AUTO 00000KT 10SM BKN019 BKN039 BKN100 M10/M11 A2995 RMK AO2 T10961108
KROS 140515Z AUTO 00000KT 7SM -SN SCT021 BKN037 BKN055 M09/M10 A2995 RMK AO2 T10881101
KROS 140455Z AUTO 00000KT 10SM SCT021 SCT029 OVC038 M08/M09 A2994 RMK AO2 T10771095
KROS 140435Z AUTO 27003KT 10SM OVC038 M06/M09 A2994 RMK AO2 T10651087
KROS 140415Z AUTO 35004KT 10SM OVC038 M06/M09 A2993 RMK AO2 T10621086
KROS 140355Z AUTO 36003KT 10SM -SN OVC038 M06/M08 A2992 RMK AO2 T10621085
KROS 140335Z AUTO 34003KT 10SM -SN SCT030 OVC042 M06/M08 A2992 RMK AO2 T10631085
KROS 140315Z AUTO 00000KT 10SM SCT019 BKN028 OVC044 M06/M08 A2992 RMK AO2 T10631085
KROS 140255Z AUTO 00000KT 10SM SCT019 BKN026 OVC043 M06/M08 A2992 RMK AO2 T10621085
KROS 140235Z AUTO 32003KT 10SM OVC026 M06/M08 A2991 RMK AO2 T10611085
KROS 140215Z AUTO 33003KT 10SM OVC024 M06/M08 A2991 RMK AO2 T10591085
KROS 140155Z AUTO 34007KT 10SM OVC024 M06/M08 A2990 RMK AO2 T10571083
KROS 140135Z AUTO 33007KT 10SM OVC027 M06/M08 A2989 RMK AO2 T10601085
KROS 140115Z AUTO 33005KT 10SM BKN032 OVC041 M06/M08 A2988 RMK AO2 T10621085
KROS 140055Z AUTO 34005KT 10SM BKN034 BKN043 BKN075 M07/M09 A2987 RMK AO2 T10681090
KROS 140035Z AUTO 33005KT 10SM CLR M07/M09 A2986 RMK AO2 T10741093
KROS 140015Z AUTO 33004KT 10SM CLR M07/M09 A2984 RMK AO2 T10721092
KROS 132355Z AUTO 32005KT 10SM CLR M07/M09 A2983 RMK AO2 T10691090 11047 21069
KROS 132335Z AUTO 33005KT 10SM CLR M07/M09 A2981 RMK AO2 T10661089
KROS 132315Z AUTO 33006KT 10SM SCT028 SCT085 M06/M09 A2980 RMK AO2 T10631086
KROS 132255Z AUTO 33005KT 10SM BKN028 BKN045 BKN070 M06/M08 A2978 RMK AO2 T10581083
KROS 132235Z AUTO 33007KT 10SM SCT022 SCT027 OVC045 M05/M08 A2975 RMK AO2 T10551081
KROS 132215Z AUTO 33008KT 7SM -SN BKN019 OVC026 M05/M08 A2975 RMK AO2 T10511080
KROS 132155Z AUTO 32007KT 10SM BKN021 OVC028 M05/M08 A2973 RMK AO2 T10481078
KROS 132135Z AUTO 32008KT 10SM OVC021 M05/M08 A2971 RMK AO2 T10501080
KROS 132115Z AUTO 32009G15KT 10SM OVC021 M05/M08 A2970 RMK AO2 T10481080
KROS 132055Z AUTO 31010KT 10SM OVC021 M05/M08 A2968 RMK AO2 T10481080
KROS 132035Z AUTO 32008G14KT 10SM OVC021 M05/M08 A2966 RMK AO2 T10481080
KROS 132015Z AUTO 32011G16KT 10SM OVC021 M05/M08 A2965 RMK AO2 T10481080
KROS 131955Z AUTO 32008G16KT 10SM OVC021 M05/M08 A2963 RMK AO2 T10481080
KROS 131935Z AUTO 33009KT 10SM OVC017 M05/M08 A2962 RMK AO2 T10481078
KROS 131915Z AUTO 32010G16KT 10SM OVC015 M05/M08 A2961 RMK AO2 T10501079
KROS 131855Z AUTO 32010G14KT 10SM OVC015 M05/M08 A2961 RMK AO2 T10501080
KROS 131835Z AUTO 33010G17KT 10SM OVC015 M05/M08 A2959 RMK AO2 T10511080